createdAt,value
2024-03-24T18:01:47.218Z,20.85
2024-03-24T18:02:47.049Z,20.87
2024-03-24T18:03:47.025Z,20.85
2024-03-24T18:04:47.028Z,20.85
2024-03-24T18:05:47.001Z,20.89
2024-03-24T18:06:47.008Z,20.93
2024-03-24T18:07:47.011Z,20.89
2024-03-24T18:08:46.959Z,20.81
2024-03-24T18:09:46.952Z,20.93
2024-03-24T18:10:47.905Z,20.90
2024-03-24T18:11:46.931Z,20.92
2024-03-24T18:12:46.904Z,20.92
2024-03-24T18:13:46.960Z,20.93
2024-03-24T18:14:48.844Z,20.89
2024-03-24T18:15:46.916Z,20.85
2024-03-24T18:16:46.861Z,20.93
2024-03-24T18:17:46.908Z,20.97
2024-03-24T18:18:46.833Z,20.95
2024-03-24T18:19:49.098Z,20.84
2024-03-24T18:20:47.178Z,20.99
2024-03-24T18:21:46.815Z,20.99
2024-03-24T18:23:56.533Z,21.03
2024-03-24T18:24:56.543Z,20.99
2024-03-24T18:25:56.502Z,21.05
2024-03-24T18:26:56.776Z,21.03
2024-03-24T18:27:56.474Z,21.05
2024-03-24T18:28:56.517Z,20.96
2024-03-24T18:29:56.461Z,21.10
2024-03-24T18:30:56.481Z,21.06
2024-03-24T18:31:58.222Z,21.10
2024-03-24T18:32:56.661Z,20.99
2024-03-24T18:33:56.772Z,21.08
2024-03-24T18:34:56.789Z,21.11
2024-03-24T18:35:56.402Z,21.08
2024-03-24T18:36:56.944Z,21.08
2024-03-24T18:37:56.778Z,21.12
2024-03-24T18:38:56.822Z,21.15
2024-03-24T18:39:56.377Z,21.17
2024-03-24T18:40:57.442Z,21.18
2024-03-24T18:41:56.785Z,21.15
2024-03-24T18:42:56.641Z,21.14
2024-03-24T18:43:56.622Z,21.21
2024-03-24T18:44:56.687Z,21.15
2024-03-24T18:45:56.626Z,21.12
2024-03-24T18:46:56.618Z,21.11
2024-03-24T18:47:56.506Z,21.20
2024-03-24T18:48:58.942Z,21.14
2024-03-24T18:49:56.246Z,21.14
2024-03-24T18:50:56.620Z,21.22
2024-03-24T18:51:56.222Z,21.20
2024-03-24T18:52:56.421Z,21.27
2024-03-24T18:53:56.414Z,21.24
2024-03-24T18:54:56.611Z,21.18
2024-03-24T18:55:56.415Z,21.20
2024-03-24T18:56:56.406Z,21.14
2024-03-24T18:57:56.453Z,21.33
2024-03-24T18:58:56.182Z,21.27
2024-03-24T18:59:56.358Z,21.27
2024-03-24T19:00:56.131Z,21.37
2024-03-24T19:01:56.115Z,21.21
2024-03-24T19:02:56.274Z,21.26
2024-03-24T19:03:56.456Z,21.30
2024-03-24T19:04:56.453Z,21.30
2024-03-24T19:05:56.271Z,21.30
2024-03-24T19:06:58.483Z,21.27
2024-03-24T19:07:56.776Z,21.29
2024-03-24T19:08:56.275Z,21.27
2024-03-24T19:09:56.244Z,21.22
2024-03-24T19:10:56.261Z,21.29
2024-03-24T19:11:56.176Z,21.27
2024-03-24T19:12:58.386Z,21.24
2024-03-24T19:13:58.606Z,21.27
2024-03-24T19:14:56.457Z,21.29
2024-03-24T19:15:56.298Z,21.27
2024-03-24T19:16:55.962Z,21.27
2024-03-24T19:17:56.100Z,21.26
2024-03-24T19:18:58.623Z,21.27
2024-03-24T19:19:56.303Z,21.29
2024-03-24T19:20:56.326Z,21.29
2024-03-24T19:21:56.298Z,21.36
2024-03-24T19:22:56.301Z,21.39
2024-03-24T19:23:56.292Z,21.30
2024-03-24T19:25:16.800Z,21.33
